Time,TemperatureF,DewpointF,PressureIn,WindDirection,WindDirectionDegrees,WindSpeedMPH,WindSpeedGustMPH,Humidity,HourlyPrecipIn,Conditions,Clouds,dailyrainin,SoftwareType,DateUTC
2013-01-04 00:00:00,5.5,2.5,29.99,South,182,1.0,2.0,87,0.00,,,0.00,VWS V14.01,2013-01-04 05:00:00,
2013-01-04 00:02:00,6.0,3.2,29.99,NW,306,2.0,2.0,88,0.00,,,0.00,VWS V14.01,2013-01-04 05:02:00,
2013-01-04 00:03:00,6.3,4.0,29.98,West,273,0.0,2.0,90,0.00,,,0.00,VWS V14.01,2013-01-04 05:03:00,
2013-01-04 00:08:00,7.8,5.5,29.98,WNW,292,0.0,0.0,90,0.00,,,0.00,VWS V14.01,2013-01-04 05:08:00,
2013-01-04 00:13:00,7.6,4.6,29.99,NW,319,0.0,3.0,87,0.00,,,0.00,VWS V14.01,2013-01-04 05:13:00,
2013-01-04 00:18:00,7.4,4.1,29.99,NE,51,0.0,2.0,86,0.00,,,0.00,VWS V14.01,2013-01-04 05:18:00,
2013-01-04 00:23:00,8.4,5.8,29.98,SW,235,0.0,3.0,89,0.00,,,0.00,VWS V14.01,2013-01-04 05:23:00,
2013-01-04 00:28:00,10.2,8.1,29.98,SW,230,1.0,4.0,91,0.00,,,0.00,VWS V14.01,2013-01-04 05:28:00,
2013-01-04 00:33:00,11.8,9.7,29.98,WSW,242,0.0,4.0,91,0.00,,,0.00,VWS V14.01,2013-01-04 05:33:00,
2013-01-04 00:38:00,12.2,9.8,29.97,SSW,211,2.0,3.0,90,0.00,,,0.00,VWS V14.01,2013-01-04 05:38:00,
2013-01-04 00:43:00,12.8,10.2,29.97,ESE,117,0.0,4.0,89,0.00,,,0.00,VWS V14.01,2013-01-04 05:43:00,
2013-01-04 00:48:00,11.5,7.6,29.97,ENE,62,0.0,3.0,84,0.00,,,0.00,VWS V14.01,2013-01-04 05:48:00,
2013-01-04 00:53:00,10.5,6.6,29.97,ENE,62,0.0,3.0,84,0.00,,,0.00,VWS V14.01,2013-01-04 05:53:00,
2013-01-04 00:58:00,9.9,6.6,29.97,ENE,61,0.0,1.0,86,0.00,,,0.00,VWS V14.01,2013-01-04 05:58:00,
2013-01-04 01:03:00,10.2,7.4,29.96,SW,219,2.0,2.0,88,0.00,,,0.00,VWS V14.01,2013-01-04 06:03:00,
2013-01-04 01:08:00,14.0,12.4,29.96,SW,236,2.0,6.0,93,0.00,,,0.00,VWS V14.01,2013-01-04 06:08:00,
2013-01-04 01:13:00,15.3,13.1,29.96,SW,221,4.0,7.0,91,0.00,,,0.00,VWS V14.01,2013-01-04 06:13:00,
2013-01-04 01:18:00,15.4,12.5,29.96,WSW,242,2.0,5.0,88,0.00,,,0.00,VWS V14.01,2013-01-04 06:18:00,
2013-01-04 01:23:00,15.7,13.5,29.95,SSW,211,6.0,7.0,91,0.00,,,0.00,VWS V14.01,2013-01-04 06:23:00,
2013-01-04 01:28:00,17.2,14.8,29.95,WSW,245,5.0,8.0,90,0.00,,,0.00,VWS V14.01,2013-01-04 06:28:00,
2013-01-04 01:33:00,15.9,11.7,29.95,SSW,192,4.0,8.0,83,0.00,,,0.00,VWS V14.01,2013-01-04 06:33:00,
2013-01-04 01:38:00,16.3,13.4,29.95,WNW,298,1.0,7.0,88,0.00,,,0.00,VWS V14.01,2013-01-04 06:38:00,
2013-01-04 01:43:00,13.6,8.3,29.96,North,355,0.0,7.0,79,0.00,,,0.00,VWS V14.01,2013-01-04 06:43:00,
2013-01-04 01:48:00,12.5,9.1,29.96,SSW,209,2.0,7.0,86,0.00,,,0.00,VWS V14.01,2013-01-04 06:48:00,
2013-01-04 01:53:00,11.8,7.9,29.96,SW,214,1.0,7.0,84,0.00,,,0.00,VWS V14.01,2013-01-04 06:53:00,
2013-01-04 01:58:00,12.6,10.0,29.96,NW,305,0.0,5.0,89,0.00,,,0.00,VWS V14.01,2013-01-04 06:58:00,
2013-01-04 02:03:00,12.2,9.1,29.96,SE,130,0.0,5.0,87,0.00,,,0.00,VWS V14.01,2013-01-04 07:03:00,
2013-01-04 02:08:00,12.2,9.1,29.97,WSW,238,3.0,4.0,87,0.00,,,0.00,VWS V14.01,2013-01-04 07:08:00,
2013-01-04 02:13:00,15.2,13.5,29.97,WSW,258,4.0,8.0,93,0.00,,,0.00,VWS V14.01,2013-01-04 07:13:00,
2013-01-04 02:18:00,17.1,14.9,29.97,West,269,6.0,6.0,91,0.00,,,0.00,VWS V14.01,2013-01-04 07:18:00,
2013-01-04 02:23:00,17.8,15.4,29.97,SSW,197,4.0,7.0,90,0.00,,,0.00,VWS V14.01,2013-01-04 07:23:00,
2013-01-04 02:28:00,18.8,16.1,29.97,SW,228,5.0,8.0,89,0.00,,,0.00,VWS V14.01,2013-01-04 07:28:00,
2013-01-04 02:33:00,19.1,16.1,29.96,SW,224,6.0,8.0,88,0.00,,,0.00,VWS V14.01,2013-01-04 07:33:00,
2013-01-04 02:38:00,19.4,16.2,29.96,WSW,248,3.0,7.0,87,0.00,,,0.00,VWS V14.01,2013-01-04 07:38:00,
2013-01-04 02:43:00,19.6,16.4,29.96,WSW,239,1.0,7.0,87,0.00,,,0.00,VWS V14.01,2013-01-04 07:43:00,
2013-01-04 02:48:00,19.6,16.4,29.96,WSW,246,4.0,7.0,87,0.00,,,0.00,VWS V14.01,2013-01-04 07:48:00,
2013-01-04 02:53:00,19.7,16.5,29.96,SW,219,5.0,7.0,87,0.00,,,0.00,VWS V14.01,2013-01-04 07:53:00,
2013-01-04 02:58:00,19.7,16.5,29.96,SW,223,4.0,5.0,87,0.00,,,0.00,VWS V14.01,2013-01-04 07:58:00,
2013-01-04 03:03:00,19.7,16.5,29.96,WSW,252,2.0,5.0,87,0.00,,,0.00,VWS V14.01,2013-01-04 08:03:00,
2013-01-04 03:08:00,19.5,16.3,29.96,West,275,2.0,4.0,87,0.00,,,0.00,VWS V14.01,2013-01-04 08:08:00,
2013-01-04 03:13:00,19.3,16.3,29.96,West,265,3.0,5.0,88,0.00,,,0.00,VWS V14.01,2013-01-04 08:13:00,
2013-01-04 03:18:00,19.5,16.8,29.96,SW,227,2.0,5.0,89,0.00,,,0.00,VWS V14.01,2013-01-04 08:18:00,
2013-01-04 03:23:00,19.3,16.3,29.96,WSW,238,3.0,5.0,88,0.00,,,0.00,VWS V14.01,2013-01-04 08:23:00,
2013-01-04 03:28:00,19.5,16.8,29.96,West,259,2.0,4.0,89,0.00,,,0.00,VWS V14.01,2013-01-04 08:28:00,
2013-01-04 03:33:00,19.5,17.0,29.96,SW,220,3.0,5.0,90,0.00,,,0.00,VWS V14.01,2013-01-04 08:33:00,
2013-01-04 03:38:00,19.8,17.4,29.96,SW,225,3.0,7.0,90,0.00,,,0.00,VWS V14.01,2013-01-04 08:38:00,
2013-01-04 03:43:00,19.9,17.5,29.96,SW,229,4.0,7.0,90,0.00,,,0.00,VWS V14.01,2013-01-04 08:43:00,
2013-01-04 03:48:00,20.0,17.5,29.95,SSW,211,5.0,5.0,90,0.00,,,0.00,VWS V14.01,2013-01-04 08:48:00,
2013-01-04 03:53:00,20.2,17.7,29.95,WSW,247,4.0,5.0,90,0.00,,,0.00,VWS V14.01,2013-01-04 08:53:00,
2013-01-04 03:58:00,20.3,17.8,29.95,SW,220,4.0,5.0,90,0.00,,,0.00,VWS V14.01,2013-01-04 08:58:00,
2013-01-04 04:03:00,20.7,18.2,29.95,SW,229,1.0,5.0,90,0.00,,,0.00,VWS V14.01,2013-01-04 09:03:00,
2013-01-04 04:08:00,20.9,18.2,29.95,SW,215,3.0,4.0,89,0.00,,,0.00,VWS V14.01,2013-01-04 09:08:00,
2013-01-04 04:13:00,20.8,18.1,29.94,SW,223,3.0,5.0,89,0.00,,,0.00,VWS V14.01,2013-01-04 09:13:00,
2013-01-04 04:17:00,20.9,18.2,29.94,SW,218,1.0,4.0,89,0.00,,,0.00,VWS V14.01,2013-01-04 09:17:00,
2013-01-04 04:22:00,21.0,18.3,29.94,SW,226,3.0,4.0,89,0.00,,,0.00,VWS V14.01,2013-01-04 09:22:00,
2013-01-04 04:27:00,21.1,18.4,29.94,SW,226,2.0,4.0,89,0.00,,,0.00,VWS V14.01,2013-01-04 09:27:00,
2013-01-04 04:32:00,21.1,18.4,29.94,SW,220,1.0,4.0,89,0.00,,,0.00,VWS V14.01,2013-01-04 09:32:00,
2013-01-04 04:37:00,21.2,18.5,29.94,SW,229,2.0,6.0,89,0.00,,,0.00,VWS V14.01,2013-01-04 09:37:00,
2013-01-04 04:42:00,21.3,18.3,29.94,WSW,240,0.0,6.0,88,0.00,,,0.00,VWS V14.01,2013-01-04 09:42:00,
2013-01-04 04:47:00,21.2,18.5,29.94,WSW,237,2.0,4.0,89,0.00,,,0.00,VWS V14.01,2013-01-04 09:47:00,
2013-01-04 04:52:00,21.0,18.3,29.94,WSW,238,2.0,4.0,89,0.00,,,0.00,VWS V14.01,2013-01-04 09:52:00,
2013-01-04 04:57:00,21.2,18.5,29.94,WSW,250,2.0,6.0,89,0.00,,,0.00,VWS V14.01,2013-01-04 09:57:00,
2013-01-04 05:02:00,21.2,18.5,29.94,SSW,209,3.0,6.0,89,0.00,,,0.00,VWS V14.01,2013-01-04 10:02:00,
2013-01-04 05:07:00,21.5,18.8,29.93,SW,216,1.0,6.0,89,0.00,,,0.00,VWS V14.01,2013-01-04 10:07:00,
2013-01-04 05:12:00,21.6,18.9,29.93,WSW,240,2.0,6.0,89,0.00,,,0.00,VWS V14.01,2013-01-04 10:12:00,
2013-01-04 05:17:00,21.6,18.9,29.93,WSW,251,4.0,4.0,89,0.00,,,0.00,VWS V14.01,2013-01-04 10:17:00,
2013-01-04 05:22:00,21.7,18.7,29.94,West,273,3.0,5.0,88,0.00,,,0.00,VWS V14.01,2013-01-04 10:22:00,
2013-01-04 05:27:00,21.7,18.7,29.94,WSW,257,2.0,3.0,88,0.00,,,0.00,VWS V14.01,2013-01-04 10:27:00,
2013-01-04 05:32:00,21.8,19.1,29.94,WSW,250,3.0,5.0,89,0.00,,,0.00,VWS V14.01,2013-01-04 10:32:00,
2013-01-04 05:37:00,21.9,18.9,29.94,WSW,249,3.0,4.0,88,0.00,,,0.00,VWS V14.01,2013-01-04 10:37:00,
2013-01-04 05:42:00,22.1,19.4,29.94,WSW,245,3.0,6.0,89,0.00,,,0.00,VWS V14.01,2013-01-04 10:42:00,
2013-01-04 05:47:00,22.1,19.1,29.94,WSW,246,3.0,5.0,88,0.00,,,0.00,VWS V14.01,2013-01-04 10:47:00,
2013-01-04 05:52:00,22.0,19.0,29.94,West,263,5.0,5.0,88,0.00,,,0.00,VWS V14.01,2013-01-04 10:52:00,
2013-01-04 05:57:00,22.1,19.4,29.94,WSW,246,7.0,8.0,89,0.00,,,0.00,VWS V14.01,2013-01-04 10:57:00,
2013-01-04 06:02:00,22.3,19.6,29.94,SW,218,4.0,8.0,89,0.00,,,0.00,VWS V14.01,2013-01-04 11:02:00,
2013-01-04 06:07:00,22.6,19.9,29.94,SSW,211,3.0,7.0,89,0.00,,,0.00,VWS V14.01,2013-01-04 11:07:00,
2013-01-04 06:12:00,22.7,20.0,29.94,SW,229,2.0,7.0,89,0.00,,,0.00,VWS V14.01,2013-01-04 11:12:00,
2013-01-04 06:17:00,22.8,20.0,29.94,WNW,284,2.0,5.0,89,0.00,,,0.00,VWS V14.01,2013-01-04 11:17:00,
2013-01-04 06:22:00,22.8,20.0,29.93,SW,230,3.0,6.0,89,0.00,,,0.00,VWS V14.01,2013-01-04 11:22:00,
2013-01-04 06:27:00,23.2,20.5,29.93,SW,234,5.0,8.0,89,0.00,,,0.00,VWS V14.01,2013-01-04 11:27:00,
2013-01-04 06:32:00,23.5,20.5,29.93,SSW,211,4.0,8.0,88,0.00,,,0.00,VWS V14.01,2013-01-04 11:32:00,
2013-01-04 06:37:00,23.7,20.7,29.93,SW,234,5.0,6.0,88,0.00,,,0.00,VWS V14.01,2013-01-04 11:37:00,
2013-01-04 06:42:00,24.0,20.7,29.94,SW,221,3.0,6.0,87,0.00,,,0.00,VWS V14.01,2013-01-04 11:42:00,
2013-01-04 06:47:00,24.3,20.7,29.93,SW,217,5.0,7.0,86,0.00,,,0.00,VWS V14.01,2013-01-04 11:47:00,
2013-01-04 06:52:00,24.3,20.7,29.93,SSW,211,3.0,7.0,86,0.00,,,0.00,VWS V14.01,2013-01-04 11:52:00,
2013-01-04 06:57:00,24.3,20.7,29.93,SW,221,5.0,5.0,86,0.00,,,0.00,VWS V14.01,2013-01-04 11:57:00,
2013-01-04 07:02:00,24.3,20.7,29.92,SW,234,4.0,5.0,86,0.00,,,0.00,VWS V14.01,2013-01-04 12:02:00,
2013-01-04 07:07:00,24.4,20.8,29.92,SW,232,5.0,7.0,86,0.00,,,0.00,VWS V14.01,2013-01-04 12:07:00,
2013-01-04 07:12:00,24.7,20.8,29.92,SW,229,2.0,7.0,85,0.00,,,0.00,VWS V14.01,2013-01-04 12:12:00,
2013-01-04 07:17:00,24.7,20.8,29.92,WSW,244,5.0,8.0,85,0.00,,,0.00,VWS V14.01,2013-01-04 12:17:00,
2013-01-04 07:22:00,25.0,20.9,29.91,SSW,213,3.0,9.0,84,0.00,,,0.00,VWS V14.01,2013-01-04 12:22:00,
2013-01-04 07:27:00,24.8,20.7,29.91,WSW,256,4.0,7.0,84,0.00,,,0.00,VWS V14.01,2013-01-04 12:27:00,
2013-01-04 07:32:00,25.1,21.0,29.90,SW,217,5.0,8.0,84,0.00,,,0.00,VWS V14.01,2013-01-04 12:32:00,
2013-01-04 07:37:00,25.2,21.0,29.90,SSW,209,6.0,9.0,84,0.00,,,0.00,VWS V14.01,2013-01-04 12:37:00,
2013-01-04 07:42:00,25.3,21.1,29.90,SSW,212,5.0,9.0,84,0.00,,,0.00,VWS V14.01,2013-01-04 12:42:00,
2013-01-04 07:47:00,25.4,21.2,29.89,West,273,9.0,11.0,84,0.00,,,0.00,VWS V14.01,2013-01-04 12:47:00,
2013-01-04 07:52:00,25.6,21.2,29.89,SSE,162,2.0,11.0,83,0.00,,,0.00,VWS V14.01,2013-01-04 12:52:00,
2013-01-04 07:57:00,25.6,21.2,29.89,SW,226,2.0,9.0,83,0.00,,,0.00,VWS V14.01,2013-01-04 12:57:00,
2013-01-04 08:02:00,25.7,21.3,29.89,WSW,254,4.0,9.0,83,0.00,,,0.00,VWS V14.01,2013-01-04 13:02:00,
2013-01-04 08:07:00,25.7,21.3,29.89,WSW,239,6.0,8.0,83,0.00,,,0.00,VWS V14.01,2013-01-04 13:07:00,
2013-01-04 08:12:00,26.1,21.4,29.89,WSW,257,7.0,10.0,82,0.00,,,0.00,VWS V14.01,2013-01-04 13:12:00,
2013-01-04 08:17:00,26.2,21.5,29.89,West,269,4.0,10.0,82,0.00,,,0.00,VWS V14.01,2013-01-04 13:17:00,
2013-01-04 08:22:00,26.2,21.8,29.90,WSW,258,3.0,10.0,83,0.00,,,0.00,VWS V14.01,2013-01-04 13:22:00,
2013-01-04 08:27:00,26.2,21.8,29.90,WSW,250,6.0,9.0,83,0.00,,,0.00,VWS V14.01,2013-01-04 13:27:00,
2013-01-04 08:32:00,26.3,21.9,29.89,SSW,193,6.0,10.0,83,0.00,,,0.00,VWS V14.01,2013-01-04 13:32:00,
2013-01-04 08:37:00,26.4,22.0,29.89,SW,221,5.0,8.0,83,0.00,,,0.00,VWS V14.01,2013-01-04 13:37:00,
2013-01-04 08:42:00,26.6,22.1,29.89,West,271,3.0,8.0,83,0.00,,,0.00,VWS V14.01,2013-01-04 13:42:00,
2013-01-04 08:47:00,26.7,22.2,29.89,SW,222,3.0,8.0,83,0.00,,,0.00,VWS V14.01,2013-01-04 13:47:00,
2013-01-04 08:52:00,27.0,22.5,29.88,SW,235,3.0,9.0,83,0.00,,,0.00,VWS V14.01,2013-01-04 13:52:00,
2013-01-04 08:57:00,27.1,22.6,29.88,West,260,2.0,9.0,83,0.00,,,0.00,VWS V14.01,2013-01-04 13:57:00,
2013-01-04 09:02:00,27.1,22.6,29.89,SSW,200,4.0,9.0,83,0.00,,,0.00,VWS V14.01,2013-01-04 14:02:00,
2013-01-04 09:07:00,27.2,22.7,29.88,West,259,2.0,7.0,83,0.00,,,0.00,VWS V14.01,2013-01-04 14:07:00,
2013-01-04 09:12:00,27.2,22.7,29.89,SW,231,5.0,10.0,83,0.00,,,0.00,VWS V14.01,2013-01-04 14:12:00,
2013-01-04 09:17:00,27.2,22.7,29.89,ESE,115,6.0,10.0,83,0.00,,,0.00,VWS V14.01,2013-01-04 14:17:00,
2013-01-04 09:22:00,27.2,22.7,29.88,SW,219,3.0,11.0,83,0.00,,,0.00,VWS V14.01,2013-01-04 14:22:00,
2013-01-04 09:27:00,27.1,22.6,29.88,West,273,4.0,10.0,83,0.00,,,0.00,VWS V14.01,2013-01-04 14:27:00,
2013-01-04 09:32:00,27.2,22.4,29.88,West,276,8.0,10.0,82,0.00,,,0.00,VWS V14.01,2013-01-04 14:32:00,
2013-01-04 09:37:00,27.2,22.4,29.87,SSW,204,6.0,10.0,82,0.00,,,0.00,VWS V14.01,2013-01-04 14:37:00,
2013-01-04 09:42:00,27.3,22.5,29.87,WSW,252,6.0,19.0,82,0.00,,,0.00,VWS V14.01,2013-01-04 14:42:00,
2013-01-04 09:47:00,27.3,22.5,29.86,SW,223,3.0,9.0,82,0.00,,,0.00,VWS V14.01,2013-01-04 14:47:00,
2013-01-04 09:52:00,27.4,22.4,29.87,SW,217,5.0,14.0,81,0.00,,,0.00,VWS V14.01,2013-01-04 14:52:00,
2013-01-04 09:57:00,27.5,22.1,29.86,SW,230,5.0,13.0,80,0.00,,,0.00,VWS V14.01,2013-01-04 14:57:00,
2013-01-04 10:02:00,27.5,22.1,29.87,WNW,285,7.0,13.0,80,0.00,,,0.00,VWS V14.01,2013-01-04 15:02:00,
2013-01-04 10:07:00,27.5,21.9,29.86,West,263,8.0,17.0,79,0.00,,,0.00,VWS V14.01,2013-01-04 15:07:00,
2013-01-04 10:12:00,27.5,21.9,29.85,WNW,296,5.0,17.0,79,0.00,,,0.00,VWS V14.01,2013-01-04 15:12:00,
2013-01-04 10:17:00,27.6,22.0,29.85,WNW,284,5.0,13.0,79,0.00,,,0.00,VWS V14.01,2013-01-04 15:17:00,
2013-01-04 10:22:00,27.7,21.8,29.84,West,271,7.0,13.0,78,0.00,,,0.00,VWS V14.01,2013-01-04 15:22:00,
2013-01-04 10:27:00,27.8,21.9,29.84,WSW,257,10.0,18.0,78,0.00,,,0.00,VWS V14.01,2013-01-04 15:27:00,
2013-01-04 10:32:00,27.8,21.9,29.83,West,279,13.0,18.0,78,0.00,,,0.00,VWS V14.01,2013-01-04 15:32:00,
2013-01-04 10:37:00,27.7,21.4,29.83,West,275,7.0,16.0,77,0.00,,,0.00,VWS V14.01,2013-01-04 15:37:00,
2013-01-04 10:42:00,27.8,21.5,29.82,SSW,211,13.0,16.0,77,0.00,,,0.00,VWS V14.01,2013-01-04 15:42:00,
2013-01-04 10:47:00,27.8,21.5,29.82,West,277,7.0,14.0,77,0.00,,,0.00,VWS V14.01,2013-01-04 15:47:00,
2013-01-04 10:52:00,28.0,21.4,29.82,West,265,8.0,18.0,76,0.00,,,0.00,VWS V14.01,2013-01-04 15:52:00,
2013-01-04 10:57:00,28.3,21.4,29.82,SW,215,8.0,15.0,75,0.00,,,0.00,VWS V14.01,2013-01-04 15:57:00,
2013-01-04 11:02:00,28.2,21.3,29.82,SW,221,5.0,15.0,75,0.00,,,0.00,VWS V14.01,2013-01-04 16:02:00,
2013-01-04 11:07:00,28.1,21.5,29.82,West,263,8.0,12.0,76,0.00,,,0.00,VWS V14.01,2013-01-04 16:07:00,
2013-01-04 11:12:00,28.5,21.3,29.82,WSW,252,8.0,14.0,74,0.00,,,0.00,VWS V14.01,2013-01-04 16:12:00,
2013-01-04 11:17:00,28.9,21.4,29.82,WSW,248,6.0,14.0,73,0.00,,,0.00,VWS V14.01,2013-01-04 16:17:00,
2013-01-04 11:22:00,29.0,21.1,29.83,East,87,5.0,22.0,72,0.00,,,0.00,VWS V14.01,2013-01-04 16:22:00,
2013-01-04 11:27:00,29.4,21.2,29.82,WSW,250,9.0,16.0,71,0.00,,,0.00,VWS V14.01,2013-01-04 16:27:00,
2013-01-04 11:32:00,29.3,20.7,29.82,SW,231,10.0,23.0,70,0.00,,,0.00,VWS V14.01,2013-01-04 16:32:00,
2013-01-04 11:37:00,29.1,20.5,29.82,WNW,293,11.0,21.0,70,0.00,,,0.00,VWS V14.01,2013-01-04 16:37:00,
2013-01-04 11:42:00,29.2,20.6,29.82,SW,236,14.0,21.0,70,0.00,,,0.00,VWS V14.01,2013-01-04 16:42:00,
2013-01-04 11:47:00,29.3,21.1,29.82,WSW,254,4.0,18.0,71,0.00,,,0.00,VWS V14.01,2013-01-04 16:47:00,
2013-01-04 11:52:00,29.3,20.7,29.82,WNW,293,7.0,18.0,70,0.00,,,0.00,VWS V14.01,2013-01-04 16:52:00,
2013-01-04 11:57:00,29.4,20.8,29.82,West,279,6.0,15.0,70,0.00,,,0.00,VWS V14.01,2013-01-04 16:57:00,
2013-01-04 12:02:00,29.6,21.0,29.82,West,265,9.0,15.0,70,0.00,,,0.00,VWS V14.01,2013-01-04 17:02:00,
2013-01-04 12:07:00,29.5,20.9,29.81,WNW,299,7.0,12.0,70,0.00,,,0.00,VWS V14.01,2013-01-04 17:07:00,
2013-01-04 12:12:00,29.5,20.9,29.81,WSW,254,6.0,20.0,70,0.00,,,0.00,VWS V14.01,2013-01-04 17:12:00,
2013-01-04 12:17:00,29.6,21.0,29.81,WSW,247,6.0,16.0,70,0.00,,,0.00,VWS V14.01,2013-01-04 17:17:00,
2013-01-04 12:22:00,29.8,21.2,29.81,WSW,253,4.0,17.0,70,0.00,,,0.00,VWS V14.01,2013-01-04 17:22:00,
2013-01-04 12:27:00,29.9,21.3,29.81,SW,233,10.0,13.0,70,0.00,,,0.00,VWS V14.01,2013-01-04 17:27:00,
2013-01-04 12:32:00,29.9,21.3,29.80,WNW,283,4.0,14.0,70,0.00,,,0.00,VWS V14.01,2013-01-04 17:32:00,
2013-01-04 12:37:00,30.1,21.9,29.80,SW,217,5.0,12.0,71,0.00,,,0.00,VWS V14.01,2013-01-04 17:37:00,
2013-01-04 12:42:00,30.2,21.9,29.81,SW,227,9.0,19.0,71,0.00,,,0.00,VWS V14.01,2013-01-04 17:42:00,
2013-01-04 12:47:00,30.2,21.6,29.80,WNW,284,5.0,9.0,70,0.00,,,0.00,VWS V14.01,2013-01-04 17:47:00,
2013-01-04 12:52:00,30.3,21.7,29.80,SW,227,1.0,14.0,70,0.00,,,0.00,VWS V14.01,2013-01-04 17:52:00,
2013-01-04 12:57:00,30.3,22.0,29.79,West,265,10.0,13.0,71,0.00,,,0.00,VWS V14.01,2013-01-04 17:57:00,
2013-01-04 13:02:00,30.5,22.2,29.79,WSW,252,12.0,18.0,71,0.00,,,0.00,VWS V14.01,2013-01-04 18:02:00,
2013-01-04 13:07:00,30.6,22.3,29.79,WSW,255,11.0,14.0,71,0.00,,,0.00,VWS V14.01,2013-01-04 18:07:00,
2013-01-04 13:12:00,30.7,22.4,29.79,WSW,251,5.0,14.0,71,0.00,,,0.00,VWS V14.01,2013-01-04 18:12:00,
2013-01-04 13:17:00,30.7,22.4,29.79,WSW,257,6.0,13.0,71,0.00,,,0.00,VWS V14.01,2013-01-04 18:17:00,
2013-01-04 13:22:00,30.8,22.5,29.78,SW,222,9.0,16.0,71,0.00,,,0.00,VWS V14.01,2013-01-04 18:22:00,
2013-01-04 13:27:00,30.7,23.1,29.79,SSW,203,11.0,13.0,73,0.00,,,0.00,VWS V14.01,2013-01-04 18:27:00,
2013-01-04 13:32:00,30.6,22.7,29.78,SW,224,4.0,15.0,72,0.00,,,0.00,VWS V14.01,2013-01-04 18:32:00,
2013-01-04 13:37:00,30.7,23.1,29.78,SW,216,9.0,18.0,73,0.00,,,0.00,VWS V14.01,2013-01-04 18:37:00,
2013-01-04 13:42:00,30.5,23.2,29.78,NW,306,9.0,18.0,74,0.00,,,0.00,VWS V14.01,2013-01-04 18:42:00,
2013-01-04 13:47:00,30.6,23.3,29.78,NW,312,6.0,12.0,74,0.00,,,0.00,VWS V14.01,2013-01-04 18:47:00,
2013-01-04 13:52:00,30.5,23.2,29.78,WNW,288,5.0,12.0,74,0.00,,,0.00,VWS V14.01,2013-01-04 18:52:00,
2013-01-04 13:57:00,30.5,23.5,29.79,SW,223,9.0,13.0,75,0.00,,,0.00,VWS V14.01,2013-01-04 18:57:00,
2013-01-04 14:02:00,30.5,23.5,29.79,NW,315,9.0,14.0,75,0.00,,,0.00,VWS V14.01,2013-01-04 19:02:00,
2013-01-04 14:07:00,30.4,23.8,29.79,SW,235,2.0,11.0,76,0.00,,,0.00,VWS V14.01,2013-01-04 19:07:00,
2013-01-04 14:12:00,30.3,23.7,29.79,WNW,284,5.0,13.0,76,0.00,,,0.00,VWS V14.01,2013-01-04 19:12:00,
2013-01-04 14:17:00,30.1,23.5,29.79,WNW,287,5.0,11.0,76,0.00,,,0.00,VWS V14.01,2013-01-04 19:17:00,
2013-01-04 14:22:00,30.1,23.8,29.79,WSW,250,7.0,13.0,77,0.00,,,0.00,VWS V14.01,2013-01-04 19:22:00,
2013-01-04 14:27:00,29.9,23.9,29.79,SW,233,7.0,13.0,78,0.00,,,0.00,VWS V14.01,2013-01-04 19:27:00,
2013-01-04 14:32:00,29.8,24.1,29.79,WSW,252,10.0,13.0,79,0.00,,,0.00,VWS V14.01,2013-01-04 19:32:00,
2013-01-04 14:37:00,29.7,24.0,29.79,SW,228,7.0,9.0,79,0.00,,,0.00,VWS V14.01,2013-01-04 19:37:00,
2013-01-04 14:42:00,29.6,24.2,29.79,SW,231,5.0,10.0,80,0.00,,,0.00,VWS V14.01,2013-01-04 19:42:00,
2013-01-04 14:47:00,29.6,24.2,29.79,West,260,9.0,15.0,80,0.00,,,0.00,VWS V14.01,2013-01-04 19:47:00,
2013-01-04 14:52:00,29.6,24.5,29.79,West,264,15.0,16.0,81,0.00,,,0.00,VWS V14.01,2013-01-04 19:52:00,
2013-01-04 14:57:00,29.6,24.5,29.79,SW,223,9.0,10.0,81,0.00,,,0.00,VWS V14.01,2013-01-04 19:57:00,
2013-01-04 15:02:00,29.5,24.4,29.79,WNW,284,6.0,12.0,81,0.00,,,0.00,VWS V14.01,2013-01-04 20:02:00,
2013-01-04 15:07:00,29.4,24.9,29.79,SW,234,5.0,8.0,83,0.00,,,0.00,VWS V14.01,2013-01-04 20:07:00,
2013-01-04 15:12:00,29.2,24.7,29.79,SW,230,4.0,10.0,83,0.00,,,0.00,VWS V14.01,2013-01-04 20:12:00,
2013-01-04 15:17:00,29.0,24.8,29.79,West,266,11.0,11.0,84,0.00,,,0.00,VWS V14.01,2013-01-04 20:17:00,
2013-01-04 15:22:00,28.9,25.0,29.79,WSW,254,6.0,12.0,85,0.00,,,0.00,VWS V14.01,2013-01-04 20:22:00,
2013-01-04 15:27:00,28.7,25.3,29.79,West,262,4.0,5.0,87,0.00,,,0.00,VWS V14.01,2013-01-04 20:27:00,
2013-01-04 15:32:00,28.5,25.1,29.80,SSW,213,4.0,6.0,87,0.00,,,0.00,VWS V14.01,2013-01-04 20:32:00,
2013-01-04 15:37:00,28.5,25.4,29.80,WSW,255,4.0,12.0,88,0.00,,,0.00,VWS V14.01,2013-01-04 20:37:00,
2013-01-04 15:42:00,28.4,25.6,29.80,West,263,3.0,12.0,89,0.00,,,0.00,VWS V14.01,2013-01-04 20:42:00,
2013-01-04 15:47:00,28.3,25.8,29.80,SW,235,3.0,6.0,90,0.00,,,0.00,VWS V14.01,2013-01-04 20:47:00,
2013-01-04 15:52:00,28.2,25.6,29.80,West,267,3.0,9.0,90,0.00,,,0.00,VWS V14.01,2013-01-04 20:52:00,
2013-01-04 15:57:00,28.2,25.9,29.80,SW,234,5.0,6.0,91,0.00,,,0.00,VWS V14.01,2013-01-04 20:57:00,
2013-01-04 16:02:00,28.1,25.8,29.80,WSW,253,3.0,8.0,91,0.00,,,0.00,VWS V14.01,2013-01-04 21:02:00,
2013-01-04 16:07:00,28.1,25.8,29.80,SW,229,4.0,9.0,91,0.00,,,0.00,VWS V14.01,2013-01-04 21:07:00,
2013-01-04 16:12:00,28.1,25.8,29.80,SW,225,4.0,10.0,91,0.00,,,0.00,VWS V14.01,2013-01-04 21:12:00,
2013-01-04 16:17:00,28.1,25.8,29.80,WSW,237,6.0,6.0,91,0.00,,,0.00,VWS V14.01,2013-01-04 21:17:00,
2013-01-04 16:22:00,28.2,25.9,29.80,WSW,239,2.0,10.0,91,0.00,,,0.00,VWS V14.01,2013-01-04 21:22:00,
2013-01-04 16:27:00,28.1,25.8,29.80,WSW,245,0.0,5.0,91,0.00,,,0.00,VWS V14.01,2013-01-04 21:27:00,
2013-01-04 16:32:00,28.4,25.9,29.80,SW,227,3.0,13.0,90,0.00,,,0.00,VWS V14.01,2013-01-04 21:32:00,
2013-01-04 16:37:00,28.5,25.7,29.80,SW,216,3.0,7.0,89,0.00,,,0.00,VWS V14.01,2013-01-04 21:37:00,
2013-01-04 16:42:00,28.8,25.4,29.80,WSW,244,2.0,8.0,87,0.00,,,0.00,VWS V14.01,2013-01-04 21:42:00,
2013-01-04 16:47:00,28.9,25.5,29.80,SW,227,3.0,8.0,87,0.00,,,0.00,VWS V14.01,2013-01-04 21:47:00,
2013-01-04 16:52:00,29.0,25.4,29.80,WNW,300,2.0,9.0,86,0.00,,,0.00,VWS V14.01,2013-01-04 21:52:00,
2013-01-04 16:57:00,29.3,25.4,29.80,SW,236,4.0,7.0,85,0.00,,,0.00,VWS V14.01,2013-01-04 21:57:00,
2013-01-04 17:02:00,29.5,25.0,29.80,WSW,250,3.0,10.0,83,0.00,,,0.00,VWS V14.01,2013-01-04 22:02:00,
2013-01-04 17:07:00,29.5,25.3,29.80,WNW,286,0.0,4.0,84,0.00,,,0.00,VWS V14.01,2013-01-04 22:07:00,
2013-01-04 17:12:00,29.4,25.2,29.81,West,268,7.0,8.0,84,0.00,,,0.00,VWS V14.01,2013-01-04 22:12:00,
2013-01-04 17:17:00,29.7,25.2,29.81,NW,313,9.0,10.0,83,0.00,,,0.00,VWS V14.01,2013-01-04 22:17:00,
2013-01-04 17:22:00,29.7,24.9,29.81,WNW,298,3.0,10.0,82,0.00,,,0.00,VWS V14.01,2013-01-04 22:22:00,
2013-01-04 17:27:00,29.9,25.1,29.81,WNW,282,5.0,15.0,82,0.00,,,0.00,VWS V14.01,2013-01-04 22:27:00,
2013-01-04 17:32:00,30.2,24.8,29.81,WNW,289,4.0,18.0,80,0.00,,,0.00,VWS V14.01,2013-01-04 22:32:00,
2013-01-04 17:37:00,30.3,24.9,29.81,NW,319,6.0,9.0,80,0.00,,,0.00,VWS V14.01,2013-01-04 22:37:00,
2013-01-04 17:42:00,30.3,24.6,29.81,NNW,333,5.0,13.0,79,0.00,,,0.00,VWS V14.01,2013-01-04 22:42:00,
2013-01-04 17:47:00,30.3,24.9,29.80,SW,232,5.0,9.0,80,0.00,,,0.00,VWS V14.01,2013-01-04 22:47:00,
2013-01-04 17:52:00,30.3,24.6,29.80,West,280,10.0,13.0,79,0.00,,,0.00,VWS V14.01,2013-01-04 22:52:00,
2013-01-04 17:57:00,30.4,25.0,29.80,SW,236,3.0,10.0,80,0.00,,,0.00,VWS V14.01,2013-01-04 22:57:00,
2013-01-04 18:02:00,30.3,24.9,29.80,WNW,298,5.0,14.0,80,0.00,,,0.00,VWS V14.01,2013-01-04 23:02:00,
2013-01-04 18:07:00,30.3,24.9,29.81,West,281,6.0,19.0,80,0.00,,,0.00,VWS V14.01,2013-01-04 23:07:00,
2013-01-04 18:12:00,30.2,24.8,29.80,WNW,282,7.0,19.0,80,0.00,,,0.00,VWS V14.01,2013-01-04 23:12:00,
2013-01-04 18:17:00,30.2,25.1,29.80,WSW,245,4.0,14.0,81,0.00,,,0.00,VWS V14.01,2013-01-04 23:17:00,
2013-01-04 18:22:00,30.0,25.2,29.80,WNW,283,7.0,14.0,82,0.00,,,0.00,VWS V14.01,2013-01-04 23:22:00,
2013-01-04 18:27:00,30.0,25.2,29.80,SW,228,3.0,9.0,82,0.00,,,0.00,VWS V14.01,2013-01-04 23:27:00,
2013-01-04 18:32:00,30.0,24.9,29.80,SW,217,12.0,18.0,81,0.00,,,0.00,VWS V14.01,2013-01-04 23:32:00,
2013-01-04 18:37:00,30.1,25.0,29.80,NW,322,6.0,14.0,81,0.00,,,0.00,VWS V14.01,2013-01-04 23:37:00,
2013-01-04 18:42:00,30.1,25.0,29.81,West,262,4.0,14.0,81,0.00,,,0.00,VWS V14.01,2013-01-04 23:42:00,
2013-01-04 18:47:00,30.1,25.0,29.81,WNW,290,7.0,12.0,81,0.00,,,0.00,VWS V14.01,2013-01-04 23:47:00,
2013-01-04 18:52:00,29.9,25.1,29.81,West,277,7.0,12.0,82,0.00,,,0.00,VWS V14.01,2013-01-04 23:52:00,
2013-01-04 18:57:00,30.0,25.2,29.81,SW,236,6.0,9.0,82,0.00,,,0.00,VWS V14.01,2013-01-04 23:57:00,
2013-01-04 19:02:00,30.0,24.9,29.81,SW,227,4.0,17.0,81,0.00,,,0.00,VWS V14.01,2013-01-05 00:02:00,
2013-01-04 19:07:00,30.0,24.9,29.81,WSW,246,4.0,11.0,81,0.00,,,0.00,VWS V14.01,2013-01-05 00:07:00,
2013-01-04 19:12:00,30.0,25.2,29.81,NW,308,9.0,16.0,82,0.00,,,0.00,VWS V14.01,2013-01-05 00:12:00,
2013-01-04 19:17:00,29.9,25.1,29.81,NW,316,13.0,14.0,82,0.00,,,0.00,VWS V14.01,2013-01-05 00:17:00,
2013-01-04 19:22:00,29.8,25.0,29.81,NNW,338,11.0,14.0,82,0.00,,,0.00,VWS V14.01,2013-01-05 00:22:00,
2013-01-04 19:27:00,29.7,25.2,29.80,West,275,3.0,11.0,83,0.00,,,0.00,VWS V14.01,2013-01-05 00:27:00,
2013-01-04 19:32:00,29.6,25.4,29.81,West,262,8.0,13.0,84,0.00,,,0.00,VWS V14.01,2013-01-05 00:32:00,
2013-01-04 19:37:00,29.5,25.6,29.80,West,270,8.0,15.0,85,0.00,,,0.00,VWS V14.01,2013-01-05 00:37:00,
2013-01-04 19:42:00,29.4,25.7,29.81,WNW,295,5.0,15.0,86,0.00,,,0.00,VWS V14.01,2013-01-05 00:42:00,
2013-01-04 19:47:00,29.2,25.8,29.81,WSW,246,6.0,12.0,87,0.00,,,0.00,VWS V14.01,2013-01-05 00:47:00,
2013-01-04 19:52:00,29.0,25.9,29.81,WSW,240,7.0,12.0,88,0.00,,,0.00,VWS V14.01,2013-01-05 00:52:00,
2013-01-04 19:57:00,29.0,25.9,29.81,WNW,284,3.0,10.0,88,0.00,,,0.00,VWS V14.01,2013-01-05 00:57:00,
2013-01-04 20:02:00,29.0,25.9,29.81,WSW,245,3.0,10.0,88,0.00,,,0.00,VWS V14.01,2013-01-05 01:02:00,
2013-01-04 20:07:00,29.1,25.7,29.81,SW,229,8.0,14.0,87,0.00,,,0.00,VWS V14.01,2013-01-05 01:07:00,
2013-01-04 20:12:00,29.3,25.9,29.81,West,264,6.0,18.0,87,0.00,,,0.00,VWS V14.01,2013-01-05 01:12:00,
2013-01-04 20:17:00,29.1,25.7,29.81,West,269,8.0,12.0,87,0.00,,,0.00,VWS V14.01,2013-01-05 01:17:00,
2013-01-04 20:22:00,29.0,25.9,29.81,SW,231,3.0,13.0,88,0.00,,,0.00,VWS V14.01,2013-01-05 01:22:00,
2013-01-04 20:27:00,28.8,25.7,29.81,WSW,246,2.0,18.0,88,0.00,,,0.00,VWS V14.01,2013-01-05 01:27:00,
2013-01-04 20:32:00,28.9,25.8,29.81,West,275,9.0,18.0,88,0.00,,,0.00,VWS V14.01,2013-01-05 01:32:00,
2013-01-04 20:37:00,29.0,25.6,29.82,NNW,332,3.0,15.0,87,0.00,,,0.00,VWS V14.01,2013-01-05 01:37:00,
2013-01-04 20:42:00,29.0,25.6,29.82,NW,325,13.0,15.0,87,0.00,,,0.00,VWS V14.01,2013-01-05 01:42:00,
2013-01-04 20:47:00,28.9,25.5,29.82,WNW,300,6.0,11.0,87,0.00,,,0.00,VWS V14.01,2013-01-05 01:47:00,
2013-01-04 20:52:00,28.9,25.5,29.82,NW,318,7.0,15.0,87,0.00,,,0.00,VWS V14.01,2013-01-05 01:52:00,
2013-01-04 20:57:00,29.0,25.4,29.82,WNW,299,11.0,14.0,86,0.00,,,0.00,VWS V14.01,2013-01-05 01:57:00,
2013-01-04 21:02:00,28.9,25.5,29.81,WNW,296,5.0,14.0,87,0.00,,,0.00,VWS V14.01,2013-01-05 02:02:00,
2013-01-04 21:07:00,29.0,25.4,29.81,West,281,12.0,16.0,86,0.00,,,0.00,VWS V14.01,2013-01-05 02:07:00,
2013-01-04 21:12:00,29.0,25.1,29.81,West,281,8.0,16.0,85,0.00,,,0.00,VWS V14.01,2013-01-05 02:12:00,
2013-01-04 21:17:00,29.0,25.4,29.81,WNW,297,8.0,15.0,86,0.00,,,0.00,VWS V14.01,2013-01-05 02:17:00,
2013-01-04 21:22:00,28.9,25.2,29.81,West,262,8.0,18.0,86,0.00,,,0.00,VWS V14.01,2013-01-05 02:22:00,
2013-01-04 21:27:00,28.9,25.2,29.81,WNW,302,4.0,9.0,86,0.00,,,0.00,VWS V14.01,2013-01-05 02:27:00,
2013-01-04 21:32:00,28.8,25.1,29.81,NNW,331,10.0,16.0,86,0.00,,,0.00,VWS V14.01,2013-01-05 02:32:00,
2013-01-04 21:37:00,28.7,25.3,29.81,WNW,297,5.0,11.0,87,0.00,,,0.00,VWS V14.01,2013-01-05 02:37:00,
2013-01-04 21:42:00,28.6,25.2,29.81,WNW,288,15.0,17.0,87,0.00,,,0.00,VWS V14.01,2013-01-05 02:42:00,
2013-01-04 21:47:00,28.5,25.1,29.81,West,276,8.0,20.0,87,0.00,,,0.00,VWS V14.01,2013-01-05 02:47:00,
2013-01-04 21:52:00,28.6,25.0,29.81,NW,324,4.0,25.0,86,0.00,,,0.00,VWS V14.01,2013-01-05 02:52:00,
2013-01-04 21:57:00,28.7,25.0,29.81,WNW,290,10.0,15.0,86,0.00,,,0.00,VWS V14.01,2013-01-05 02:57:00,
2013-01-04 22:02:00,28.6,25.0,29.81,NW,323,7.0,15.0,86,0.00,,,0.00,VWS V14.01,2013-01-05 03:02:00,
2013-01-04 22:07:00,28.6,24.7,29.82,SW,234,11.0,15.0,85,0.00,,,0.00,VWS V14.01,2013-01-05 03:07:00,
2013-01-04 22:12:00,28.6,24.4,29.81,WSW,239,6.0,18.0,84,0.00,,,0.00,VWS V14.01,2013-01-05 03:12:00,
2013-01-04 22:17:00,28.6,24.4,29.82,West,269,9.0,18.0,84,0.00,,,0.00,VWS V14.01,2013-01-05 03:17:00,
2013-01-04 22:22:00,28.6,24.4,29.82,North,360,8.0,18.0,84,0.00,,,0.00,VWS V14.01,2013-01-05 03:22:00,
2013-01-04 22:27:00,28.5,24.3,29.82,NW,306,6.0,16.0,84,0.00,,,0.00,VWS V14.01,2013-01-05 03:27:00,
2013-01-04 22:32:00,28.5,24.3,29.82,WNW,289,21.0,21.0,84,0.00,,,0.00,VWS V14.01,2013-01-05 03:32:00,
2013-01-04 22:37:00,28.7,23.9,29.81,NW,319,7.0,16.0,82,0.00,,,0.00,VWS V14.01,2013-01-05 03:37:00,
2013-01-04 22:42:00,28.7,23.9,29.82,West,278,13.0,16.0,82,0.00,,,0.00,VWS V14.01,2013-01-05 03:42:00,
2013-01-04 22:47:00,28.8,24.0,29.82,West,279,11.0,15.0,82,0.00,,,0.00,VWS V14.01,2013-01-05 03:47:00,
2013-01-04 22:52:00,28.8,23.7,29.82,WNW,302,8.0,17.0,81,0.00,,,0.00,VWS V14.01,2013-01-05 03:52:00,
2013-01-04 22:57:00,28.9,23.5,29.82,WNW,294,12.0,24.0,80,0.00,,,0.00,VWS V14.01,2013-01-05 03:57:00,
2013-01-04 23:02:00,29.0,23.3,29.82,WNW,301,8.0,24.0,79,0.00,,,0.00,VWS V14.01,2013-01-05 04:02:00,
2013-01-04 23:07:00,29.3,23.0,29.82,NNW,329,6.0,16.0,77,0.00,,,0.00,VWS V14.01,2013-01-05 04:07:00,
2013-01-04 23:12:00,29.6,22.4,29.82,WNW,300,9.0,28.0,74,0.00,,,0.00,VWS V14.01,2013-01-05 04:12:00,
2013-01-04 23:17:00,29.7,23.1,29.82,SW,223,15.0,20.0,76,0.00,,,0.00,VWS V14.01,2013-01-05 04:17:00,
2013-01-04 23:22:00,29.4,23.1,29.82,SW,228,5.0,22.0,77,0.00,,,0.00,VWS V14.01,2013-01-05 04:22:00,
2013-01-04 23:27:00,29.4,22.8,29.82,SW,232,17.0,20.0,76,0.00,,,0.00,VWS V14.01,2013-01-05 04:27:00,
2013-01-04 23:32:00,29.5,22.2,29.81,WNW,294,13.0,20.0,74,0.00,,,0.00,VWS V14.01,2013-01-05 04:32:00,
2013-01-04 23:37:00,29.5,21.9,29.81,WNW,294,12.0,17.0,73,0.00,,,0.00,VWS V14.01,2013-01-05 04:37:00,
2013-01-04 23:42:00,29.5,22.2,29.81,West,275,5.0,19.0,74,0.00,,,0.00,VWS V14.01,2013-01-05 04:42:00,
2013-01-04 23:47:00,29.4,21.8,29.81,SW,232,6.0,17.0,73,0.00,,,0.00,VWS V14.01,2013-01-05 04:47:00,
2013-01-04 23:52:00,29.4,21.8,29.81,West,261,11.0,17.0,73,0.00,,,0.00,VWS V14.01,2013-01-05 04:52:00,
2013-01-04 23:57:00,29.4,21.5,29.81,WNW,292,16.0,21.0,72,0.00,,,0.00,VWS V14.01,2013-01-05 04:57:00,